createdAt,value
2023-03-17T00:02:18.960Z,95124.00
2023-03-17T00:06:18.593Z,95124.00
2023-03-17T00:10:18.778Z,95116.00
2023-03-17T00:14:19.021Z,95122.00
2023-03-17T00:18:19.202Z,95106.00
2023-03-17T00:22:19.413Z,95104.00
2023-03-17T00:26:19.642Z,95102.00
2023-03-17T00:30:19.880Z,95098.00
2023-03-17T00:34:20.070Z,95096.00
2023-03-17T00:38:20.305Z,95087.00
2023-03-17T00:42:20.483Z,95089.00
2023-03-17T00:46:20.799Z,95079.00
2023-03-17T00:50:20.907Z,95063.00
2023-03-17T00:54:21.113Z,95067.00
2023-03-17T00:58:21.347Z,95063.00
2023-03-17T01:02:21.605Z,95065.00
2023-03-17T01:06:21.774Z,95063.00
2023-03-17T01:10:21.973Z,95057.00
2023-03-17T01:14:22.190Z,95067.00
2023-03-17T01:18:22.570Z,95069.00
2023-03-17T01:22:22.357Z,95067.00
2023-03-17T01:26:25.054Z,95069.00
2023-03-17T01:30:22.293Z,95067.00
2023-03-17T01:34:22.282Z,95063.00
2023-03-17T01:38:22.241Z,95063.00
2023-03-17T01:42:22.212Z,95069.00
2023-03-17T01:46:22.128Z,95055.00
2023-03-17T01:50:22.129Z,95067.00
2023-03-17T01:54:22.146Z,95057.00
2023-03-17T01:58:22.094Z,95051.00
2023-03-17T02:02:22.054Z,95045.00
2023-03-17T02:06:22.053Z,95038.00
2023-03-17T02:10:22.016Z,95040.00
2023-03-17T02:14:21.964Z,95030.00
2023-03-17T02:18:21.916Z,95034.00
2023-03-17T02:22:21.884Z,95032.00
2023-03-17T02:26:21.850Z,95028.00
2023-03-17T02:30:21.807Z,95040.00
2023-03-17T02:34:21.954Z,95024.00
2023-03-17T02:38:21.923Z,95034.00
2023-03-17T02:42:21.885Z,95024.00
2023-03-17T02:46:21.895Z,95042.00
2023-03-17T02:50:21.810Z,95018.00
2023-03-17T02:54:21.741Z,95020.00
2023-03-17T02:58:21.748Z,95026.00
2023-03-17T03:02:21.770Z,95018.00
2023-03-17T03:06:21.681Z,95018.00
2023-03-17T03:10:21.613Z,95004.00
2023-03-17T03:14:21.566Z,95016.00
2023-03-17T03:18:21.653Z,95014.00
2023-03-17T03:22:21.791Z,95012.00
2023-03-17T03:26:21.951Z,95020.00
2023-03-17T03:30:22.176Z,95020.00
2023-03-17T03:34:22.377Z,95030.00
2023-03-17T03:38:22.568Z,95018.00
2023-03-17T03:42:22.704Z,95018.00
2023-03-17T03:46:22.882Z,95032.00
2023-03-17T03:50:22.981Z,95032.00
2023-03-17T03:54:23.130Z,95024.00
2023-03-17T03:58:23.237Z,95016.00
2023-03-17T04:02:23.417Z,95018.00
2023-03-17T04:06:23.427Z,95002.00
2023-03-17T04:10:23.520Z,95028.00
2023-03-17T04:14:23.598Z,95018.00
2023-03-17T04:18:23.696Z,95014.00
2023-03-17T04:22:23.744Z,95008.00
2023-03-17T04:26:23.694Z,95008.00
2023-03-17T04:30:23.674Z,95008.00
2023-03-17T04:34:23.681Z,94996.00
2023-03-17T04:38:23.656Z,95004.00
2023-03-17T04:42:23.716Z,94991.00
2023-03-17T04:46:23.663Z,94993.00
2023-03-17T04:50:23.630Z,94991.00
2023-03-17T04:54:23.648Z,94985.00
2023-03-17T04:58:30.857Z,94989.00
2023-03-17T05:02:24.611Z,94991.00
2023-03-17T05:06:23.580Z,94975.00
2023-03-17T05:10:23.596Z,94987.00
2023-03-17T05:14:23.601Z,94995.00
2023-03-17T05:18:23.577Z,95000.00
2023-03-17T05:22:23.557Z,94998.00
2023-03-17T05:26:23.559Z,94993.00
2023-03-17T05:30:23.547Z,94996.00
2023-03-17T05:34:23.568Z,94993.00
2023-03-17T05:38:23.515Z,94991.00
2023-03-17T05:42:24.058Z,94995.00
2023-03-17T05:46:23.506Z,94987.00
2023-03-17T05:50:23.463Z,94995.00
2023-03-17T05:54:23.446Z,94993.00
2023-03-17T05:58:23.457Z,94998.00
2023-03-17T06:02:23.480Z,94987.00
2023-03-17T06:06:23.440Z,94989.00
2023-03-17T06:10:23.425Z,94991.00
2023-03-17T06:14:24.131Z,94991.00
2023-03-17T06:18:23.418Z,94995.00
2023-03-17T06:22:23.359Z,94987.00
2023-03-17T06:26:23.332Z,94987.00
2023-03-17T06:30:23.338Z,94987.00
2023-03-17T06:34:23.339Z,94989.00
2023-03-17T06:38:23.304Z,94993.00
2023-03-17T06:42:23.566Z,94989.00
2023-03-17T06:46:23.441Z,94977.00
2023-03-17T06:50:23.582Z,94973.00
2023-03-17T06:54:23.592Z,94979.00
2023-03-17T06:58:23.611Z,94975.00
2023-03-17T07:02:23.610Z,94977.00
2023-03-17T07:06:23.174Z,94975.00
2023-03-17T07:10:23.598Z,94973.00
2023-03-17T07:14:23.127Z,94979.00
2023-03-17T07:18:23.109Z,94965.00
2023-03-17T07:22:23.053Z,94979.00
2023-03-17T07:26:23.030Z,94959.00
2023-03-17T07:30:23.122Z,94969.00
2023-03-17T07:34:23.197Z,94977.00
2023-03-17T07:38:23.391Z,94971.00
2023-03-17T07:42:23.600Z,94971.00
2023-03-17T07:46:23.656Z,94967.00
2023-03-17T07:50:23.606Z,94951.00
2023-03-17T07:54:24.125Z,94942.00
2023-03-17T07:58:23.412Z,94944.00
2023-03-17T08:02:23.679Z,94942.00
2023-03-17T08:06:23.369Z,94936.00
2023-03-17T08:10:23.347Z,94940.00
2023-03-17T08:14:23.638Z,94938.00
2023-03-17T08:18:23.276Z,94934.00
2023-03-17T08:22:23.631Z,94928.00
2023-03-17T08:26:23.177Z,94920.00
2023-03-17T08:30:23.157Z,94912.00
2023-03-17T08:34:23.104Z,94920.00
2023-03-17T08:38:23.629Z,94914.00
2023-03-17T08:42:23.632Z,94893.00
2023-03-17T08:46:23.744Z,94891.00
2023-03-17T08:50:23.230Z,94895.00
2023-03-17T08:54:23.654Z,94885.00
2023-03-17T08:58:23.390Z,94881.00
2023-03-17T09:02:23.703Z,94881.00
2023-03-17T09:06:23.305Z,94869.00
2023-03-17T09:10:23.289Z,94863.00
2023-03-17T09:14:24.176Z,94850.00
2023-03-17T09:18:23.659Z,94838.00
2023-03-17T09:22:23.158Z,94836.00
2023-03-17T09:26:23.126Z,94820.00
2023-03-17T09:30:23.121Z,94816.00
2023-03-17T09:34:23.026Z,94810.00
2023-03-17T09:38:23.175Z,94807.00
2023-03-17T09:42:23.173Z,94812.00
2023-03-17T09:46:23.011Z,94812.00
2023-03-17T09:50:23.166Z,94809.00
2023-03-17T09:54:23.139Z,94805.00
2023-03-17T09:58:22.805Z,94793.00
2023-03-17T10:02:22.779Z,94793.00
2023-03-17T10:06:22.799Z,94781.00
2023-03-17T10:10:22.897Z,94775.00
2023-03-17T10:14:23.191Z,94763.00
2023-03-17T10:18:22.840Z,94765.00
2023-03-17T10:22:22.781Z,94756.00
2023-03-17T10:26:22.756Z,94742.00
2023-03-17T10:30:23.181Z,94742.00
2023-03-17T10:34:22.673Z,94734.00
2023-03-17T10:38:22.663Z,94734.00
2023-03-17T10:42:22.706Z,94722.00
2023-03-17T10:46:22.764Z,94720.00
2023-03-17T10:50:22.692Z,94709.00
2023-03-17T10:54:22.566Z,94699.00
2023-03-17T10:58:22.645Z,94689.00
2023-03-17T11:02:23.202Z,94685.00
2023-03-17T11:06:22.785Z,94689.00
2023-03-17T11:10:23.222Z,94685.00
2023-03-17T11:14:22.913Z,94671.00
2023-03-17T11:18:22.978Z,94658.00
2023-03-17T11:22:23.016Z,94646.00
2023-03-17T11:26:23.023Z,94646.00
2023-03-17T11:30:22.982Z,94638.00
2023-03-17T11:34:23.226Z,94630.00
2023-03-17T11:38:23.754Z,94619.00
2023-03-17T11:42:23.733Z,94624.00
2023-03-17T11:46:23.585Z,94605.00
2023-03-17T11:50:23.737Z,94611.00
2023-03-17T11:54:24.269Z,94603.00
2023-03-17T11:58:24.008Z,94577.00
2023-03-17T12:02:23.935Z,94587.00
2023-03-17T12:06:23.910Z,94577.00
2023-03-17T12:10:23.858Z,94569.00
2023-03-17T12:14:24.223Z,94571.00
2023-03-17T12:18:24.702Z,94560.00
2023-03-17T12:22:24.215Z,94564.00
2023-03-17T12:26:23.746Z,94542.00
2023-03-17T12:30:23.718Z,94544.00
2023-03-17T12:34:23.727Z,94548.00
2023-03-17T12:38:23.733Z,94534.00
2023-03-17T12:42:23.703Z,94524.00
2023-03-17T12:46:23.688Z,94509.00
2023-03-17T12:50:23.633Z,94519.00
2023-03-17T12:54:23.763Z,94517.00
2023-03-17T12:58:25.974Z,94501.00
2023-03-17T13:02:23.507Z,94493.00
2023-03-17T13:06:23.434Z,94481.00
2023-03-17T13:10:23.432Z,94489.00
2023-03-17T13:14:23.372Z,94479.00
2023-03-17T13:18:23.344Z,94487.00
2023-03-17T13:22:23.334Z,94474.00
2023-03-17T13:26:23.267Z,94460.00
2023-03-17T13:30:23.313Z,94452.00
2023-03-17T13:34:23.207Z,94460.00
2023-03-17T13:38:23.161Z,94450.00
2023-03-17T13:42:23.172Z,94446.00
2023-03-17T13:46:23.139Z,94440.00
2023-03-17T13:50:23.062Z,94440.00
2023-03-17T13:54:23.038Z,94434.00
2023-03-17T13:58:23.022Z,94430.00
2023-03-17T14:02:22.972Z,94421.00
2023-03-17T14:06:22.942Z,94427.00
2023-03-17T14:10:22.901Z,94423.00
2023-03-17T14:14:32.574Z,94425.00
2023-03-17T14:18:23.835Z,94421.00
2023-03-17T14:22:22.780Z,94417.00
2023-03-17T14:26:22.716Z,94403.00
2023-03-17T14:30:22.693Z,94407.00
2023-03-17T14:34:22.690Z,94403.00
2023-03-17T14:38:22.842Z,94405.00
2023-03-17T14:42:22.954Z,94387.00
2023-03-17T14:46:23.191Z,94389.00
2023-03-17T14:50:23.177Z,94401.00
2023-03-17T14:54:23.338Z,94389.00
2023-03-17T14:58:23.445Z,94382.00
2023-03-17T15:02:23.652Z,94383.00
2023-03-17T15:06:23.750Z,94372.00
2023-03-17T15:10:23.864Z,94385.00
2023-03-17T15:14:23.953Z,94378.00
2023-03-17T15:18:24.140Z,94380.00
2023-03-17T15:22:24.272Z,94376.00
2023-03-17T15:26:24.395Z,94374.00
2023-03-17T15:30:24.771Z,94374.00
2023-03-17T15:34:24.641Z,94376.00
2023-03-17T15:38:24.794Z,94380.00
2023-03-17T15:42:24.957Z,94376.00
2023-03-17T15:46:25.072Z,94372.00
2023-03-17T15:50:25.200Z,94378.00
2023-03-17T15:54:25.354Z,94376.00
2023-03-17T15:58:25.463Z,94376.00
2023-03-17T16:02:25.641Z,94372.00
2023-03-17T16:06:25.784Z,94372.00
2023-03-17T16:10:25.904Z,94380.00
2023-03-17T16:14:26.034Z,94372.00
2023-03-17T16:18:26.177Z,94378.00
2023-03-17T16:22:27.311Z,94380.00
2023-03-17T16:26:26.491Z,94368.00
2023-03-17T16:30:26.666Z,94372.00
2023-03-17T16:34:26.798Z,94380.00
2023-03-17T16:38:26.967Z,94385.00
2023-03-17T16:42:27.133Z,94401.00
2023-03-17T16:46:27.484Z,94409.00
2023-03-17T16:50:27.514Z,94419.00
2023-03-17T16:54:27.664Z,94417.00
2023-03-17T16:58:27.859Z,94442.00
2023-03-17T17:02:28.083Z,94436.00
2023-03-17T17:06:28.208Z,94444.00
2023-03-17T17:10:28.462Z,94440.00
2023-03-17T17:14:28.580Z,94452.00
2023-03-17T17:18:28.778Z,94448.00
2023-03-17T17:22:28.911Z,94446.00
2023-03-17T17:26:29.153Z,94454.00
2023-03-17T17:30:29.832Z,94448.00
2023-03-17T17:34:29.538Z,94452.00
2023-03-17T17:38:29.774Z,94444.00
2023-03-17T17:42:29.709Z,94448.00
2023-03-17T17:46:29.712Z,94454.00
2023-03-17T17:50:30.026Z,94466.00
2023-03-17T17:54:29.587Z,94464.00
2023-03-17T17:58:29.600Z,94454.00
2023-03-17T18:02:29.536Z,94454.00
2023-03-17T18:06:29.494Z,94454.00
2023-03-17T18:10:29.498Z,94460.00
2023-03-17T18:14:29.433Z,94458.00
2023-03-17T18:18:29.383Z,94460.00
2023-03-17T18:22:29.580Z,94458.00
2023-03-17T18:26:29.565Z,94460.00
2023-03-17T18:30:29.947Z,94466.00
2023-03-17T18:34:29.472Z,94470.00
2023-03-17T18:38:29.446Z,94495.00
2023-03-17T18:42:29.383Z,94487.00
2023-03-17T18:46:29.323Z,94499.00
2023-03-17T18:50:29.685Z,94501.00
2023-03-17T18:54:29.302Z,94495.00
2023-03-17T18:58:29.314Z,94499.00
2023-03-17T19:02:29.277Z,94503.00
2023-03-17T19:06:29.231Z,94499.00
2023-03-17T19:10:29.428Z,94507.00
2023-03-17T19:14:29.198Z,94519.00
2023-03-17T19:18:29.164Z,94517.00
2023-03-17T19:22:29.097Z,94517.00
2023-03-17T19:26:29.442Z,94524.00
2023-03-17T19:30:29.238Z,94522.00
2023-03-17T19:34:28.993Z,94521.00
2023-03-17T19:38:29.125Z,94515.00
2023-03-17T19:42:29.076Z,94509.00
2023-03-17T19:46:29.072Z,94515.00
2023-03-17T19:50:29.319Z,94509.00
2023-03-17T19:54:28.944Z,94526.00
2023-03-17T19:58:28.908Z,94517.00
2023-03-17T20:02:28.871Z,94519.00
2023-03-17T20:06:28.833Z,94526.00
2023-03-17T20:10:29.028Z,94522.00
2023-03-17T20:14:28.789Z,94530.00
2023-03-17T20:18:28.909Z,94524.00
2023-03-17T20:22:28.892Z,94521.00
2023-03-17T20:26:28.831Z,94524.00
2023-03-17T20:30:28.859Z,94534.00
2023-03-17T20:34:28.757Z,94544.00
2023-03-17T20:38:28.744Z,94538.00
2023-03-17T20:42:28.665Z,94528.00
2023-03-17T20:46:28.666Z,94538.00
2023-03-17T20:50:28.600Z,94532.00
2023-03-17T20:54:28.574Z,94542.00
2023-03-17T20:58:28.558Z,94536.00
2023-03-17T21:02:28.512Z,94542.00
2023-03-17T21:06:28.633Z,94542.00
2023-03-17T21:10:28.820Z,94548.00
2023-03-17T21:14:28.981Z,94550.00
2023-03-17T21:18:29.098Z,94556.00
2023-03-17T21:22:29.260Z,94542.00
2023-03-17T21:26:29.446Z,94554.00
2023-03-17T21:30:29.825Z,94564.00
2023-03-17T21:34:29.763Z,94552.00
2023-03-17T21:38:29.884Z,94585.00
2023-03-17T21:42:30.047Z,94575.00
2023-03-17T21:46:30.170Z,94585.00
2023-03-17T21:50:30.322Z,94593.00
2023-03-17T21:54:30.378Z,94589.00
2023-03-17T21:58:30.423Z,94595.00
2023-03-17T22:02:30.490Z,94603.00
2023-03-17T22:06:30.689Z,94603.00
2023-03-17T22:10:30.975Z,94603.00
2023-03-17T22:14:30.768Z,94615.00
2023-03-17T22:18:30.835Z,94619.00
2023-03-17T22:22:30.847Z,94617.00
2023-03-17T22:26:30.856Z,94621.00
2023-03-17T22:30:31.025Z,94624.00
2023-03-17T22:34:30.909Z,94626.00
2023-03-17T22:38:30.937Z,94628.00
2023-03-17T22:42:30.899Z,94624.00
2023-03-17T22:46:30.905Z,94623.00
2023-03-17T22:50:31.192Z,94624.00
2023-03-17T22:54:30.829Z,94626.00
2023-03-17T22:58:30.834Z,94632.00
2023-03-17T23:02:30.836Z,94640.00
2023-03-17T23:06:30.828Z,94654.00
2023-03-17T23:10:31.067Z,94660.00
2023-03-17T23:14:30.765Z,94666.00
2023-03-17T23:18:30.733Z,94664.00
2023-03-17T23:22:30.726Z,94660.00
2023-03-17T23:26:30.738Z,94664.00
2023-03-17T23:30:31.242Z,94669.00
2023-03-17T23:34:30.668Z,94675.00
2023-03-17T23:38:30.651Z,94679.00
2023-03-17T23:42:30.632Z,94675.00
2023-03-17T23:46:30.731Z,94679.00
2023-03-17T23:50:30.911Z,94685.00
2023-03-17T23:54:30.606Z,94683.00
2023-03-17T23:58:30.596Z,94691.00
